sensor_id;sensor_type;location;lat;lon;timestamp;P1;durP1;ratioP1;P2;durP2;ratioP2
62654;SDS011;48717;55.556;37.816;2022-07-24T00:00:36;39.53;;;19.65;;
62654;SDS011;48717;55.556;37.816;2022-07-24T00:03:04;34.78;;;21.55;;
62654;SDS011;48717;55.556;37.816;2022-07-24T00:05:31;48.10;;;18.40;;
62654;SDS011;48717;55.556;37.816;2022-07-24T00:07:58;41.38;;;17.80;;
62654;SDS011;48717;55.556;37.816;2022-07-24T00:10:26;45.13;;;18.45;;
62654;SDS011;48717;55.556;37.816;2022-07-24T00:12:53;49.95;;;19.67;;
62654;SDS011;48717;55.556;37.816;2022-07-24T00:15:20;47.95;;;20.33;;
62654;SDS011;48717;55.556;37.816;2022-07-24T00:17:47;60.42;;;25.10;;
62654;SDS011;48717;55.556;37.816;2022-07-24T00:20:14;50.80;;;26.35;;
62654;SDS011;48717;55.556;37.816;2022-07-24T00:22:41;55.70;;;21.70;;
62654;SDS011;48717;55.556;37.816;2022-07-24T00:25:09;51.95;;;19.80;;
62654;SDS011;48717;55.556;37.816;2022-07-24T00:27:36;41.95;;;21.80;;
62654;SDS011;48717;55.556;37.816;2022-07-24T00:30:03;48.47;;;20.45;;
62654;SDS011;48717;55.556;37.816;2022-07-24T00:32:31;54.25;;;19.67;;
62654;SDS011;48717;55.556;37.816;2022-07-24T00:34:58;44.60;;;19.38;;
62654;SDS011;48717;55.556;37.816;2022-07-24T00:37:26;39.20;;;18.02;;
62654;SDS011;48717;55.556;37.816;2022-07-24T00:39:54;33.22;;;18.05;;
62654;SDS011;48717;55.556;37.816;2022-07-24T00:42:21;33.45;;;16.17;;
62654;SDS011;48717;55.556;37.816;2022-07-24T00:44:48;36.38;;;17.67;;
62654;SDS011;48717;55.556;37.816;2022-07-24T00:47:15;37.17;;;19.00;;
62654;SDS011;48717;55.556;37.816;2022-07-24T00:49:42;42.92;;;18.60;;
62654;SDS011;48717;55.556;37.816;2022-07-24T00:52:09;36.78;;;17.45;;
62654;SDS011;48717;55.556;37.816;2022-07-24T00:54:36;39.17;;;19.08;;
62654;SDS011;48717;55.556;37.816;2022-07-24T00:57:04;49.13;;;20.00;;
62654;SDS011;48717;55.556;37.816;2022-07-24T00:59:32;54.15;;;25.35;;
62654;SDS011;48717;55.556;37.816;2022-07-24T01:02:00;43.80;;;20.05;;
62654;SDS011;48717;55.556;37.816;2022-07-24T01:04:27;51.55;;;21.45;;
62654;SDS011;48717;55.556;37.816;2022-07-24T01:06:54;42.40;;;17.92;;
62654;SDS011;48717;55.556;37.816;2022-07-24T01:09:21;46.00;;;17.75;;
62654;SDS011;48717;55.556;37.816;2022-07-24T01:11:49;45.83;;;17.90;;
62654;SDS011;48717;55.556;37.816;2022-07-24T01:14:18;39.60;;;17.90;;
62654;SDS011;48717;55.556;37.816;2022-07-24T01:16:45;43.75;;;19.88;;
62654;SDS011;48717;55.556;37.816;2022-07-24T01:19:13;46.85;;;20.45;;
62654;SDS011;48717;55.556;37.816;2022-07-24T01:21:47;42.38;;;19.15;;
62654;SDS011;48717;55.556;37.816;2022-07-24T01:24:15;34.30;;;15.60;;
62654;SDS011;48717;55.556;37.816;2022-07-24T01:26:43;41.03;;;18.83;;
62654;SDS011;48717;55.556;37.816;2022-07-24T01:29:10;58.88;;;20.77;;
62654;SDS011;48717;55.556;37.816;2022-07-24T01:31:38;45.25;;;19.55;;
62654;SDS011;48717;55.556;37.816;2022-07-24T01:34:05;34.78;;;18.45;;
62654;SDS011;48717;55.556;37.816;2022-07-24T01:36:33;57.83;;;20.73;;
62654;SDS011;48717;55.556;37.816;2022-07-24T01:39:00;42.50;;;20.02;;
62654;SDS011;48717;55.556;37.816;2022-07-24T01:41:28;47.70;;;21.00;;
62654;SDS011;48717;55.556;37.816;2022-07-24T01:43:55;56.22;;;24.55;;
62654;SDS011;48717;55.556;37.816;2022-07-24T01:46:22;59.97;;;23.33;;
62654;SDS011;48717;55.556;37.816;2022-07-24T01:48:50;44.83;;;22.95;;
62654;SDS011;48717;55.556;37.816;2022-07-24T01:51:17;48.22;;;21.85;;
62654;SDS011;48717;55.556;37.816;2022-07-24T01:53:44;51.20;;;20.60;;
62654;SDS011;48717;55.556;37.816;2022-07-24T01:56:11;33.95;;;17.70;;
62654;SDS011;48717;55.556;37.816;2022-07-24T01:58:38;38.30;;;17.23;;
62654;SDS011;48717;55.556;37.816;2022-07-24T02:01:06;41.22;;;18.98;;
62654;SDS011;48717;55.556;37.816;2022-07-24T02:03:33;35.63;;;17.58;;
62654;SDS011;48717;55.556;37.816;2022-07-24T02:06:00;30.52;;;17.45;;
62654;SDS011;48717;55.556;37.816;2022-07-24T02:08:27;36.63;;;16.92;;
62654;SDS011;48717;55.556;37.816;2022-07-24T02:10:54;29.63;;;16.25;;
62654;SDS011;48717;55.556;37.816;2022-07-24T02:13:22;30.80;;;16.20;;
62654;SDS011;48717;55.556;37.816;2022-07-24T02:15:52;30.70;;;17.45;;
62654;SDS011;48717;55.556;37.816;2022-07-24T02:18:19;34.35;;;16.65;;
62654;SDS011;48717;55.556;37.816;2022-07-24T02:20:47;46.45;;;21.42;;
62654;SDS011;48717;55.556;37.816;2022-07-24T02:23:14;37.25;;;18.13;;
62654;SDS011;48717;55.556;37.816;2022-07-24T02:25:45;25.42;;;15.13;;
62654;SDS011;48717;55.556;37.816;2022-07-24T02:28:14;21.02;;;12.90;;
62654;SDS011;48717;55.556;37.816;2022-07-24T02:30:41;20.75;;;13.15;;
62654;SDS011;48717;55.556;37.816;2022-07-24T02:33:09;20.70;;;13.35;;
62654;SDS011;48717;55.556;37.816;2022-07-24T02:35:37;28.13;;;14.48;;
62654;SDS011;48717;55.556;37.816;2022-07-24T02:38:05;23.80;;;13.73;;
62654;SDS011;48717;55.556;37.816;2022-07-24T02:40:32;20.50;;;12.35;;
62654;SDS011;48717;55.556;37.816;2022-07-24T02:42:59;27.13;;;13.60;;
62654;SDS011;48717;55.556;37.816;2022-07-24T02:45:26;27.77;;;13.23;;
62654;SDS011;48717;55.556;37.816;2022-07-24T02:47:55;25.92;;;14.13;;
62654;SDS011;48717;55.556;37.816;2022-07-24T02:50:25;31.97;;;15.27;;
62654;SDS011;48717;55.556;37.816;2022-07-24T02:52:57;28.92;;;15.10;;
62654;SDS011;48717;55.556;37.816;2022-07-24T02:55:24;32.10;;;14.98;;
62654;SDS011;48717;55.556;37.816;2022-07-24T02:57:52;33.38;;;15.15;;
62654;SDS011;48717;55.556;37.816;2022-07-24T03:00:20;40.13;;;18.98;;
62654;SDS011;48717;55.556;37.816;2022-07-24T03:02:49;34.33;;;16.08;;
62654;SDS011;48717;55.556;37.816;2022-07-24T03:05:17;52.65;;;27.35;;
62654;SDS011;48717;55.556;37.816;2022-07-24T03:07:44;54.67;;;21.52;;
62654;SDS011;48717;55.556;37.816;2022-07-24T03:10:11;58.88;;;34.55;;
62654;SDS011;48717;55.556;37.816;2022-07-24T03:12:40;33.42;;;17.30;;
62654;SDS011;48717;55.556;37.816;2022-07-24T03:15:07;45.75;;;19.35;;
62654;SDS011;48717;55.556;37.816;2022-07-24T03:17:36;53.95;;;19.30;;
62654;SDS011;48717;55.556;37.816;2022-07-24T03:20:03;47.30;;;19.80;;
62654;SDS011;48717;55.556;37.816;2022-07-24T03:22:31;35.92;;;18.63;;
62654;SDS011;48717;55.556;37.816;2022-07-24T03:27:30;33.88;;;17.38;;
62654;SDS011;48717;55.556;37.816;2022-07-24T03:29:57;33.78;;;16.88;;
62654;SDS011;48717;55.556;37.816;2022-07-24T03:32:24;30.77;;;16.17;;
62654;SDS011;48717;55.556;37.816;2022-07-24T03:34:52;26.40;;;15.52;;
62654;SDS011;48717;55.556;37.816;2022-07-24T03:37:19;30.58;;;14.90;;
62654;SDS011;48717;55.556;37.816;2022-07-24T03:39:46;40.53;;;22.77;;
62654;SDS011;48717;55.556;37.816;2022-07-24T03:42:13;24.35;;;15.93;;
62654;SDS011;48717;55.556;37.816;2022-07-24T03:44:40;29.55;;;15.43;;
62654;SDS011;48717;55.556;37.816;2022-07-24T03:47:07;44.92;;;31.48;;
62654;SDS011;48717;55.556;37.816;2022-07-24T03:49:35;69.28;;;47.08;;
62654;SDS011;48717;55.556;37.816;2022-07-24T03:52:02;59.65;;;42.22;;
62654;SDS011;48717;55.556;37.816;2022-07-24T03:54:30;42.80;;;25.27;;
62654;SDS011;48717;55.556;37.816;2022-07-24T03:56:58;30.33;;;18.65;;
62654;SDS011;48717;55.556;37.816;2022-07-24T03:59:25;46.88;;;30.73;;
62654;SDS011;48717;55.556;37.816;2022-07-24T04:01:52;37.58;;;24.00;;
62654;SDS011;48717;55.556;37.816;2022-07-24T04:04:19;35.78;;;21.33;;
62654;SDS011;48717;55.556;37.816;2022-07-24T04:06:46;23.25;;;15.30;;
62654;SDS011;48717;55.556;37.816;2022-07-24T04:09:13;32.95;;;20.73;;
62654;SDS011;48717;55.556;37.816;2022-07-24T04:11:56;32.95;;;20.65;;
62654;SDS011;48717;55.556;37.816;2022-07-24T04:14:24;30.23;;;18.17;;
62654;SDS011;48717;55.556;37.816;2022-07-24T04:16:51;35.50;;;20.20;;
62654;SDS011;48717;55.556;37.816;2022-07-24T04:19:19;44.45;;;29.35;;
62654;SDS011;48717;55.556;37.816;2022-07-24T04:21:46;30.15;;;16.08;;
62654;SDS011;48717;55.556;37.816;2022-07-24T04:24:13;37.25;;;21.10;;
62654;SDS011;48717;55.556;37.816;2022-07-24T04:26:40;30.85;;;14.85;;
62654;SDS011;48717;55.556;37.816;2022-07-24T04:29:07;43.00;;;28.77;;
62654;SDS011;48717;55.556;37.816;2022-07-24T04:31:35;29.92;;;19.20;;
62654;SDS011;48717;55.556;37.816;2022-07-24T04:34:02;22.20;;;12.52;;
62654;SDS011;48717;55.556;37.816;2022-07-24T04:36:30;30.15;;;19.92;;
62654;SDS011;48717;55.556;37.816;2022-07-24T04:38:57;31.45;;;19.10;;
62654;SDS011;48717;55.556;37.816;2022-07-24T04:41:25;55.47;;;37.65;;
62654;SDS011;48717;55.556;37.816;2022-07-24T04:43:52;20.50;;;10.98;;
62654;SDS011;48717;55.556;37.816;2022-07-24T04:46:19;29.60;;;17.55;;
62654;SDS011;48717;55.556;37.816;2022-07-24T04:48:46;22.60;;;13.73;;
62654;SDS011;48717;55.556;37.816;2022-07-24T04:51:13;27.52;;;17.00;;
62654;SDS011;48717;55.556;37.816;2022-07-24T04:53:40;18.95;;;12.88;;
62654;SDS011;48717;55.556;37.816;2022-07-24T04:56:08;14.88;;;9.50;;
62654;SDS011;48717;55.556;37.816;2022-07-24T04:58:35;24.38;;;11.48;;
62654;SDS011;48717;55.556;37.816;2022-07-24T05:01:02;23.88;;;8.93;;
62654;SDS011;48717;55.556;37.816;2022-07-24T05:03:29;15.07;;;11.18;;
62654;SDS011;48717;55.556;37.816;2022-07-24T05:05:56;11.27;;;7.60;;
62654;SDS011;48717;55.556;37.816;2022-07-24T05:08:24;12.98;;;8.55;;
62654;SDS011;48717;55.556;37.816;2022-07-24T05:10:51;8.75;;;5.90;;
62654;SDS011;48717;55.556;37.816;2022-07-24T05:13:18;12.02;;;6.90;;
62654;SDS011;48717;55.556;37.816;2022-07-24T05:15:45;14.20;;;7.15;;
62654;SDS011;48717;55.556;37.816;2022-07-24T05:18:12;17.10;;;8.07;;
62654;SDS011;48717;55.556;37.816;2022-07-24T05:20:39;14.18;;;7.32;;
62654;SDS011;48717;55.556;37.816;2022-07-24T05:23:07;12.38;;;7.00;;
62654;SDS011;48717;55.556;37.816;2022-07-24T05:25:34;14.32;;;6.50;;
62654;SDS011;48717;55.556;37.816;2022-07-24T05:28:01;12.27;;;5.93;;
62654;SDS011;48717;55.556;37.816;2022-07-24T05:30:28;6.03;;;5.50;;
62654;SDS011;48717;55.556;37.816;2022-07-24T05:32:55;20.42;;;5.72;;
62654;SDS011;48717;55.556;37.816;2022-07-24T05:35:22;10.05;;;4.97;;
62654;SDS011;48717;55.556;37.816;2022-07-24T05:37:54;9.68;;;4.65;;
62654;SDS011;48717;55.556;37.816;2022-07-24T05:40:21;9.70;;;4.95;;
62654;SDS011;48717;55.556;37.816;2022-07-24T05:42:49;7.88;;;5.40;;
62654;SDS011;48717;55.556;37.816;2022-07-24T05:45:16;5.20;;;4.00;;
62654;SDS011;48717;55.556;37.816;2022-07-24T05:47:43;6.45;;;4.28;;
62654;SDS011;48717;55.556;37.816;2022-07-24T05:50:12;6.85;;;4.40;;
62654;SDS011;48717;55.556;37.816;2022-07-24T05:55:07;7.95;;;4.40;;
62654;SDS011;48717;55.556;37.816;2022-07-24T05:57:44;6.78;;;5.00;;
62654;SDS011;48717;55.556;37.816;2022-07-24T06:00:13;10.45;;;4.88;;
62654;SDS011;48717;55.556;37.816;2022-07-24T06:02:43;7.55;;;4.70;;
62654;SDS011;48717;55.556;37.816;2022-07-24T06:05:16;7.07;;;4.70;;
62654;SDS011;48717;55.556;37.816;2022-07-24T06:07:43;12.85;;;5.13;;
62654;SDS011;48717;55.556;37.816;2022-07-24T06:10:10;13.95;;;7.88;;
62654;SDS011;48717;55.556;37.816;2022-07-24T06:12:41;14.52;;;5.10;;
62654;SDS011;48717;55.556;37.816;2022-07-24T06:15:09;7.90;;;6.03;;
62654;SDS011;48717;55.556;37.816;2022-07-24T06:17:37;13.55;;;7.72;;
62654;SDS011;48717;55.556;37.816;2022-07-24T06:20:05;8.70;;;6.38;;
62654;SDS011;48717;55.556;37.816;2022-07-24T06:22:34;7.45;;;5.60;;
62654;SDS011;48717;55.556;37.816;2022-07-24T06:25:01;11.63;;;6.10;;
62654;SDS011;48717;55.556;37.816;2022-07-24T06:27:28;13.05;;;5.95;;
62654;SDS011;48717;55.556;37.816;2022-07-24T06:29:56;9.07;;;6.00;;
62654;SDS011;48717;55.556;37.816;2022-07-24T06:32:23;11.70;;;5.55;;
62654;SDS011;48717;55.556;37.816;2022-07-24T06:34:50;11.50;;;6.20;;
62654;SDS011;48717;55.556;37.816;2022-07-24T06:37:17;11.48;;;5.57;;
62654;SDS011;48717;55.556;37.816;2022-07-24T06:39:46;15.13;;;5.57;;
62654;SDS011;48717;55.556;37.816;2022-07-24T06:42:13;12.68;;;6.20;;
62654;SDS011;48717;55.556;37.816;2022-07-24T06:44:40;7.28;;;5.10;;
62654;SDS011;48717;55.556;37.816;2022-07-24T06:47:07;6.70;;;5.00;;
62654;SDS011;48717;55.556;37.816;2022-07-24T06:49:34;7.55;;;4.68;;
62654;SDS011;48717;55.556;37.816;2022-07-24T06:52:02;8.18;;;4.75;;
62654;SDS011;48717;55.556;37.816;2022-07-24T06:54:29;7.65;;;4.72;;
62654;SDS011;48717;55.556;37.816;2022-07-24T06:56:56;12.25;;;4.90;;
62654;SDS011;48717;55.556;37.816;2022-07-24T06:59:23;7.78;;;5.40;;
62654;SDS011;48717;55.556;37.816;2022-07-24T07:01:51;8.02;;;5.18;;
62654;SDS011;48717;55.556;37.816;2022-07-24T07:04:18;7.07;;;4.60;;
62654;SDS011;48717;55.556;37.816;2022-07-24T07:06:50;4.93;;;4.40;;
62654;SDS011;48717;55.556;37.816;2022-07-24T07:09:17;12.07;;;10.88;;
62654;SDS011;48717;55.556;37.816;2022-07-24T07:11:44;8.25;;;4.53;;
62654;SDS011;48717;55.556;37.816;2022-07-24T07:14:18;5.50;;;4.20;;
62654;SDS011;48717;55.556;37.816;2022-07-24T07:16:45;8.13;;;3.88;;
62654;SDS011;48717;55.556;37.816;2022-07-24T07:19:12;5.03;;;4.20;;
62654;SDS011;48717;55.556;37.816;2022-07-24T07:21:40;5.22;;;4.20;;
62654;SDS011;48717;55.556;37.816;2022-07-24T07:24:07;4.20;;;3.80;;
62654;SDS011;48717;55.556;37.816;2022-07-24T07:26:34;3.60;;;3.30;;
62654;SDS011;48717;55.556;37.816;2022-07-24T07:29:01;4.40;;;3.55;;
62654;SDS011;48717;55.556;37.816;2022-07-24T07:31:29;8.70;;;6.72;;
62654;SDS011;48717;55.556;37.816;2022-07-24T07:33:56;5.07;;;4.57;;
62654;SDS011;48717;55.556;37.816;2022-07-24T07:36:24;6.10;;;4.50;;
62654;SDS011;48717;55.556;37.816;2022-07-24T07:38:52;4.72;;;3.45;;
62654;SDS011;48717;55.556;37.816;2022-07-24T07:41:19;3.75;;;3.47;;
62654;SDS011;48717;55.556;37.816;2022-07-24T07:43:46;5.53;;;3.58;;
62654;SDS011;48717;55.556;37.816;2022-07-24T07:46:14;10.18;;;5.55;;
62654;SDS011;48717;55.556;37.816;2022-07-24T07:48:41;3.95;;;3.63;;
62654;SDS011;48717;55.556;37.816;2022-07-24T07:51:09;15.52;;;3.80;;
62654;SDS011;48717;55.556;37.816;2022-07-24T07:53:36;9.27;;;3.80;;
62654;SDS011;48717;55.556;37.816;2022-07-24T07:56:03;4.20;;;3.80;;
62654;SDS011;48717;55.556;37.816;2022-07-24T07:58:31;6.93;;;3.90;;
62654;SDS011;48717;55.556;37.816;2022-07-24T08:00:59;6.57;;;4.18;;
62654;SDS011;48717;55.556;37.816;2022-07-24T08:03:27;8.50;;;4.30;;
62654;SDS011;48717;55.556;37.816;2022-07-24T08:05:54;16.33;;;7.85;;
62654;SDS011;48717;55.556;37.816;2022-07-24T08:08:24;4.57;;;3.67;;
62654;SDS011;48717;55.556;37.816;2022-07-24T08:10:52;209.73;;;189.35;;
62654;SDS011;48717;55.556;37.816;2022-07-24T08:13:20;12.57;;;11.25;;
62654;SDS011;48717;55.556;37.816;2022-07-24T08:15:47;10.82;;;3.40;;
62654;SDS011;48717;55.556;37.816;2022-07-24T08:18:14;8.25;;;4.82;;
62654;SDS011;48717;55.556;37.816;2022-07-24T08:20:42;8.60;;;4.70;;
62654;SDS011;48717;55.556;37.816;2022-07-24T08:23:12;8.88;;;4.10;;
62654;SDS011;48717;55.556;37.816;2022-07-24T08:25:39;5.47;;;4.35;;
62654;SDS011;48717;55.556;37.816;2022-07-24T08:28:07;6.07;;;3.67;;
62654;SDS011;48717;55.556;37.816;2022-07-24T08:30:34;3.67;;;3.38;;
62654;SDS011;48717;55.556;37.816;2022-07-24T08:33:01;3.22;;;3.03;;
62654;SDS011;48717;55.556;37.816;2022-07-24T08:35:28;3.55;;;3.25;;
62654;SDS011;48717;55.556;37.816;2022-07-24T08:37:59;4.28;;;3.30;;
62654;SDS011;48717;55.556;37.816;2022-07-24T08:40:35;4.27;;;3.70;;
62654;SDS011;48717;55.556;37.816;2022-07-24T08:43:05;13.60;;;3.72;;
62654;SDS011;48717;55.556;37.816;2022-07-24T08:45:35;3.80;;;3.38;;
62654;SDS011;48717;55.556;37.816;2022-07-24T08:48:07;4.97;;;3.30;;
62654;SDS011;48717;55.556;37.816;2022-07-24T08:50:37;4.85;;;3.30;;
62654;SDS011;48717;55.556;37.816;2022-07-24T08:53:07;5.93;;;3.22;;
62654;SDS011;48717;55.556;37.816;2022-07-24T08:55:34;6.93;;;3.40;;
62654;SDS011;48717;55.556;37.816;2022-07-24T08:58:02;16.20;;;8.77;;
62654;SDS011;48717;55.556;37.816;2022-07-24T09:00:30;10.60;;;9.63;;
62654;SDS011;48717;55.556;37.816;2022-07-24T09:02:58;10.65;;;6.80;;
62654;SDS011;48717;55.556;37.816;2022-07-24T09:05:26;10.85;;;4.25;;
62654;SDS011;48717;55.556;37.816;2022-07-24T09:10:57;8.05;;;4.50;;
62654;SDS011;48717;55.556;37.816;2022-07-24T09:13:32;11.65;;;4.72;;
62654;SDS011;48717;55.556;37.816;2022-07-24T09:16:19;13.00;;;5.00;;
62654;SDS011;48717;55.556;37.816;2022-07-24T09:18:50;7.20;;;4.72;;
62654;SDS011;48717;55.556;37.816;2022-07-24T09:21:35;6.50;;;4.32;;
62654;SDS011;48717;55.556;37.816;2022-07-24T09:24:13;5.78;;;4.53;;
62654;SDS011;48717;55.556;37.816;2022-07-24T09:26:43;8.63;;;4.85;;
62654;SDS011;48717;55.556;37.816;2022-07-24T09:29:16;7.30;;;4.80;;
62654;SDS011;48717;55.556;37.816;2022-07-24T09:31:58;9.67;;;5.37;;
62654;SDS011;48717;55.556;37.816;2022-07-24T09:34:37;11.50;;;6.00;;
62654;SDS011;48717;55.556;37.816;2022-07-24T09:37:06;7.73;;;5.47;;
62654;SDS011;48717;55.556;37.816;2022-07-24T09:39:35;7.70;;;5.45;;
62654;SDS011;48717;55.556;37.816;2022-07-24T09:42:04;15.85;;;7.13;;
62654;SDS011;48717;55.556;37.816;2022-07-24T09:47:05;8.88;;;5.13;;
62654;SDS011;48717;55.556;37.816;2022-07-24T09:49:33;8.02;;;5.47;;
62654;SDS011;48717;55.556;37.816;2022-07-24T09:54:35;9.05;;;5.00;;
62654;SDS011;48717;55.556;37.816;2022-07-24T09:59:51;6.22;;;4.97;;
62654;SDS011;48717;55.556;37.816;2022-07-24T10:02:24;5.72;;;4.28;;
62654;SDS011;48717;55.556;37.816;2022-07-24T10:04:53;6.20;;;4.50;;
62654;SDS011;48717;55.556;37.816;2022-07-24T10:07:22;5.63;;;5.13;;
62654;SDS011;48717;55.556;37.816;2022-07-24T10:09:51;8.52;;;4.50;;
62654;SDS011;48717;55.556;37.816;2022-07-24T10:12:21;9.13;;;5.25;;
62654;SDS011;48717;55.556;37.816;2022-07-24T10:14:51;25.30;;;4.97;;
62654;SDS011;48717;55.556;37.816;2022-07-24T10:17:21;20.95;;;8.25;;
62654;SDS011;48717;55.556;37.816;2022-07-24T10:19:56;9.52;;;5.03;;
62654;SDS011;48717;55.556;37.816;2022-07-24T10:22:56;4.47;;;3.80;;
62654;SDS011;48717;55.556;37.816;2022-07-24T10:25:30;5.93;;;3.33;;
62654;SDS011;48717;55.556;37.816;2022-07-24T10:31:04;3.67;;;3.30;;
62654;SDS011;48717;55.556;37.816;2022-07-24T10:33:34;3.63;;;3.30;;
62654;SDS011;48717;55.556;37.816;2022-07-24T10:36:16;4.82;;;3.30;;
62654;SDS011;48717;55.556;37.816;2022-07-24T10:38:51;3.80;;;3.40;;
62654;SDS011;48717;55.556;37.816;2022-07-24T10:41:30;4.13;;;3.30;;
62654;SDS011;48717;55.556;37.816;2022-07-24T10:44:11;6.28;;;3.50;;
62654;SDS011;48717;55.556;37.816;2022-07-24T10:49:51;3.55;;;3.30;;
62654;SDS011;48717;55.556;37.816;2022-07-24T10:52:26;11.95;;;3.80;;
62654;SDS011;48717;55.556;37.816;2022-07-24T10:58:14;10.45;;;9.00;;
62654;SDS011;48717;55.556;37.816;2022-07-24T11:00:46;10.85;;;5.30;;
62654;SDS011;48717;55.556;37.816;2022-07-24T11:03:25;4.78;;;3.65;;
62654;SDS011;48717;55.556;37.816;2022-07-24T11:06:06;6.40;;;4.10;;
62654;SDS011;48717;55.556;37.816;2022-07-24T11:08:39;3.92;;;3.10;;
62654;SDS011;48717;55.556;37.816;2022-07-24T11:11:18;3.75;;;3.15;;
62654;SDS011;48717;55.556;37.816;2022-07-24T11:13:53;4.55;;;3.13;;
62654;SDS011;48717;55.556;37.816;2022-07-24T11:16:25;6.78;;;3.15;;
62654;SDS011;48717;55.556;37.816;2022-07-24T11:21:30;3.33;;;3.03;;
62654;SDS011;48717;55.556;37.816;2022-07-24T11:26:52;7.05;;;3.50;;
62654;SDS011;48717;55.556;37.816;2022-07-24T11:29:22;17.67;;;11.85;;
62654;SDS011;48717;55.556;37.816;2022-07-24T11:31:52;6.47;;;5.53;;
62654;SDS011;48717;55.556;37.816;2022-07-24T11:34:23;6.60;;;3.47;;
62654;SDS011;48717;55.556;37.816;2022-07-24T11:36:52;3.75;;;3.13;;
62654;SDS011;48717;55.556;37.816;2022-07-24T11:39:26;5.15;;;3.35;;
62654;SDS011;48717;55.556;37.816;2022-07-24T11:41:57;3.88;;;2.70;;
62654;SDS011;48717;55.556;37.816;2022-07-24T11:44:28;5.03;;;3.75;;
62654;SDS011;48717;55.556;37.816;2022-07-24T11:46:59;6.70;;;3.17;;
62654;SDS011;48717;55.556;37.816;2022-07-24T11:52:33;7.13;;;3.28;;
62654;SDS011;48717;55.556;37.816;2022-07-24T11:55:09;8.93;;;3.53;;
62654;SDS011;48717;55.556;37.816;2022-07-24T11:57:43;3.70;;;3.33;;
62654;SDS011;48717;55.556;37.816;2022-07-24T12:00:33;5.93;;;3.67;;
62654;SDS011;48717;55.556;37.816;2022-07-24T12:03:00;9.05;;;3.13;;
62654;SDS011;48717;55.556;37.816;2022-07-24T12:05:33;3.40;;;3.10;;
62654;SDS011;48717;55.556;37.816;2022-07-24T12:08:03;3.88;;;3.33;;
62654;SDS011;48717;55.556;37.816;2022-07-24T12:10:41;6.40;;;3.00;;
62654;SDS011;48717;55.556;37.816;2022-07-24T12:13:08;2.92;;;2.65;;
62654;SDS011;48717;55.556;37.816;2022-07-24T12:15:37;4.88;;;3.08;;
62654;SDS011;48717;55.556;37.816;2022-07-24T12:18:06;8.07;;;3.70;;
62654;SDS011;48717;55.556;37.816;2022-07-24T12:23:10;5.32;;;3.17;;
62654;SDS011;48717;55.556;37.816;2022-07-24T12:25:39;11.27;;;3.97;;
62654;SDS011;48717;55.556;37.816;2022-07-24T12:28:17;4.35;;;3.25;;
62654;SDS011;48717;55.556;37.816;2022-07-24T12:30:49;3.58;;;3.28;;
62654;SDS011;48717;55.556;37.816;2022-07-24T12:35:52;5.05;;;3.40;;
62654;SDS011;48717;55.556;37.816;2022-07-24T12:38:28;15.48;;;4.35;;
62654;SDS011;48717;55.556;37.816;2022-07-24T12:43:56;6.20;;;3.53;;
62654;SDS011;48717;55.556;37.816;2022-07-24T12:49:00;3.70;;;3.40;;
62654;SDS011;48717;55.556;37.816;2022-07-24T12:54:33;5.18;;;3.58;;
62654;SDS011;48717;55.556;37.816;2022-07-24T12:57:07;4.00;;;3.40;;
62654;SDS011;48717;55.556;37.816;2022-07-24T12:59:46;4.03;;;3.60;;
62654;SDS011;48717;55.556;37.816;2022-07-24T13:02:16;4.00;;;3.40;;
62654;SDS011;48717;55.556;37.816;2022-07-24T13:04:57;4.95;;;3.28;;
62654;SDS011;48717;55.556;37.816;2022-07-24T13:07:25;10.88;;;4.35;;
62654;SDS011;48717;55.556;37.816;2022-07-24T13:09:53;7.63;;;4.33;;
62654;SDS011;48717;55.556;37.816;2022-07-24T13:12:20;7.97;;;3.40;;
62654;SDS011;48717;55.556;37.816;2022-07-24T13:14:49;7.10;;;3.75;;
62654;SDS011;48717;55.556;37.816;2022-07-24T13:17:17;6.35;;;3.30;;
62654;SDS011;48717;55.556;37.816;2022-07-24T13:19:47;6.22;;;3.10;;
62654;SDS011;48717;55.556;37.816;2022-07-24T13:22:16;4.32;;;3.20;;
62654;SDS011;48717;55.556;37.816;2022-07-24T13:24:44;3.53;;;3.22;;
62654;SDS011;48717;55.556;37.816;2022-07-24T13:27:12;7.75;;;3.15;;
62654;SDS011;48717;55.556;37.816;2022-07-24T13:29:41;3.55;;;3.13;;
62654;SDS011;48717;55.556;37.816;2022-07-24T13:32:09;17.77;;;3.40;;
62654;SDS011;48717;55.556;37.816;2022-07-24T13:34:37;4.53;;;3.40;;
62654;SDS011;48717;55.556;37.816;2022-07-24T13:37:05;3.92;;;3.45;;
62654;SDS011;48717;55.556;37.816;2022-07-24T13:39:34;5.82;;;3.30;;
62654;SDS011;48717;55.556;37.816;2022-07-24T13:42:04;7.95;;;4.10;;
62654;SDS011;48717;55.556;37.816;2022-07-24T13:44:31;3.90;;;3.70;;
62654;SDS011;48717;55.556;37.816;2022-07-24T13:47:01;3.60;;;3.20;;
62654;SDS011;48717;55.556;37.816;2022-07-24T13:49:33;5.45;;;3.33;;
62654;SDS011;48717;55.556;37.816;2022-07-24T13:52:03;4.65;;;3.42;;
62654;SDS011;48717;55.556;37.816;2022-07-24T13:54:37;4.07;;;3.67;;
62654;SDS011;48717;55.556;37.816;2022-07-24T13:57:14;7.05;;;3.55;;
62654;SDS011;48717;55.556;37.816;2022-07-24T13:59:43;6.30;;;3.45;;
62654;SDS011;48717;55.556;37.816;2022-07-24T14:02:19;11.90;;;3.70;;
62654;SDS011;48717;55.556;37.816;2022-07-24T14:04:50;6.32;;;4.40;;
62654;SDS011;48717;55.556;37.816;2022-07-24T14:07:24;8.20;;;4.13;;
62654;SDS011;48717;55.556;37.816;2022-07-24T14:09:52;3.60;;;3.30;;
62654;SDS011;48717;55.556;37.816;2022-07-24T14:12:22;10.15;;;4.05;;
62654;SDS011;48717;55.556;37.816;2022-07-24T14:14:49;6.97;;;3.60;;
62654;SDS011;48717;55.556;37.816;2022-07-24T14:17:16;3.75;;;3.45;;
62654;SDS011;48717;55.556;37.816;2022-07-24T14:19:43;8.95;;;3.55;;
62654;SDS011;48717;55.556;37.816;2022-07-24T14:22:13;8.60;;;3.45;;
62654;SDS011;48717;55.556;37.816;2022-07-24T14:24:41;4.38;;;3.75;;
62654;SDS011;48717;55.556;37.816;2022-07-24T14:27:09;6.85;;;4.07;;
62654;SDS011;48717;55.556;37.816;2022-07-24T14:29:37;11.70;;;3.88;;
62654;SDS011;48717;55.556;37.816;2022-07-24T14:32:04;8.00;;;3.60;;
62654;SDS011;48717;55.556;37.816;2022-07-24T14:34:31;4.22;;;3.83;;
62654;SDS011;48717;55.556;37.816;2022-07-24T14:36:59;5.60;;;3.70;;
62654;SDS011;48717;55.556;37.816;2022-07-24T14:39:26;7.35;;;3.85;;
62654;SDS011;48717;55.556;37.816;2022-07-24T14:41:57;12.60;;;4.00;;
62654;SDS011;48717;55.556;37.816;2022-07-24T14:44:24;8.25;;;4.68;;
62654;SDS011;48717;55.556;37.816;2022-07-24T14:46:52;5.22;;;3.80;;
62654;SDS011;48717;55.556;37.816;2022-07-24T14:49:20;10.50;;;4.38;;
62654;SDS011;48717;55.556;37.816;2022-07-24T14:51:47;15.02;;;6.05;;
62654;SDS011;48717;55.556;37.816;2022-07-24T14:54:14;8.52;;;5.60;;
62654;SDS011;48717;55.556;37.816;2022-07-24T14:56:41;10.38;;;5.07;;
62654;SDS011;48717;55.556;37.816;2022-07-24T14:59:08;9.25;;;3.90;;
62654;SDS011;48717;55.556;37.816;2022-07-24T15:01:46;8.98;;;3.80;;
62654;SDS011;48717;55.556;37.816;2022-07-24T15:04:13;5.55;;;3.60;;
62654;SDS011;48717;55.556;37.816;2022-07-24T15:06:40;4.22;;;3.50;;
62654;SDS011;48717;55.556;37.816;2022-07-24T15:09:07;4.80;;;4.10;;
62654;SDS011;48717;55.556;37.816;2022-07-24T15:11:35;4.38;;;3.50;;
62654;SDS011;48717;55.556;37.816;2022-07-24T15:14:04;4.50;;;4.03;;
62654;SDS011;48717;55.556;37.816;2022-07-24T15:16:32;8.15;;;4.03;;
62654;SDS011;48717;55.556;37.816;2022-07-24T15:18:59;5.57;;;4.43;;
62654;SDS011;48717;55.556;37.816;2022-07-24T15:21:33;13.95;;;4.35;;